Time;durP1;ratioP1;P1;durP2;ratioP2;P2;SDS_P1;SDS_P2;PMS_P1;PMS_P2;Temp;Humidity;BMP_temperature;BMP_pressure;BME280_temperature;BME280_humidity;BME280_pressure;Samples;Min_cycle;Max_cycle;Signal;HPM_P1;HPM_P2
2023/01/07 00:01:10;;;;;;;187.83;41.33;;;;;;;-145.18;100.00;60484.78;5017601;28;20555;-88
2023/01/07 00:03:36;;;;;;;192.37;41.27;;;;;;;-145.18;100.00;60484.78;5048919;28;20115;-89
2023/01/07 00:06:06;;;;;;;187.03;41.17;;;;;;;-145.18;100.00;60484.78;5043974;28;20037;-88
2023/01/07 00:08:34;;;;;;;194.23;42.57;;;;;;;-145.18;100.00;60484.78;5017923;28;20061;-88
2023/01/07 00:11:08;;;;;;;180.87;39.80;;;;;;;-145.18;100.00;60484.78;5019150;28;20040;-88
2023/01/07 00:13:34;;;;;;;183.47;40.60;;;;;;;-145.18;100.00;60484.78;5036963;28;20022;-88
2023/01/07 00:16:08;;;;;;;180.17;40.97;;;;;;;-145.18;100.00;60484.78;5015789;28;20018;-88
2023/01/07 00:18:35;;;;;;;171.77;40.57;;;;;;;-145.18;100.00;60484.78;5021997;28;20512;-88
2023/01/07 00:21:02;;;;;;;167.30;39.00;;;;;;;-145.18;100.00;60484.78;5052966;28;20029;-88
2023/01/07 00:23:29;;;;;;;170.30;40.37;;;;;;;-145.18;100.00;60484.78;5052975;28;20033;-88
2023/01/07 00:26:05;;;;;;;165.60;37.80;;;;;;;-145.18;100.00;60484.78;5050544;28;20032;-90
2023/01/07 00:28:33;;;;;;;154.90;34.47;;;;;;;-145.18;100.00;60484.78;5031513;28;20029;-88
2023/01/07 00:31:02;;;;;;;167.20;39.60;;;;;;;-145.18;100.00;60484.78;5037391;28;20476;-90
2023/01/07 00:33:28;;;;;;;154.97;36.97;;;;;;;-145.18;100.00;60484.78;5030854;28;20044;-88
2023/01/07 00:36:07;;;;;;;144.33;36.80;;;;;;;-145.18;100.00;60484.78;5019483;28;20033;-88
2023/01/07 00:38:34;;;;;;;134.00;35.20;;;;;;;-145.18;100.00;60484.78;5013435;28;20085;-88
2023/01/07 00:41:00;;;;;;;135.63;36.47;;;;;;;-145.18;100.00;60484.78;5013486;28;20025;-88
2023/01/07 00:43:25;;;;;;;128.37;36.63;;;;;;;-145.18;100.00;60484.78;5025616;28;20037;-88
2023/01/07 00:45:51;;;;;;;129.20;35.63;;;;;;;-145.18;100.00;60484.78;5033826;28;20026;-89
2023/01/07 00:48:17;;;;;;;130.90;35.83;;;;;;;-145.18;100.00;60484.78;5024535;28;20022;-88
2023/01/07 00:50:44;;;;;;;123.17;35.63;;;;;;;-145.18;100.00;60484.78;5038494;28;20424;-89
2023/01/07 00:53:11;;;;;;;113.40;34.23;;;;;;;-145.18;100.00;60484.78;5040628;28;20071;-89
2023/01/07 00:55:37;;;;;;;119.63;33.83;;;;;;;-145.18;100.00;60484.78;5021534;28;20029;-89
2023/01/07 00:58:03;;;;;;;121.80;36.23;;;;;;;-145.18;100.00;60484.78;5024999;28;20141;-89
2023/01/07 01:00:28;;;;;;;116.63;34.73;;;;;;;-145.18;100.00;60484.78;5041619;28;20025;-89
2023/01/07 01:02:54;;;;;;;119.33;34.20;;;;;;;-145.18;100.00;60484.78;5040918;28;20005;-91
2023/01/07 01:05:20;;;;;;;116.97;32.90;;;;;;;-145.18;100.00;60484.78;5062505;28;20049;-91
2023/01/07 01:07:46;;;;;;;124.87;35.63;;;;;;;-145.18;100.00;60484.78;5063873;28;20053;-90
2023/01/07 01:10:16;;;;;;;108.57;33.33;;;;;;;-145.18;100.00;60484.78;5063771;28;20018;-91
2023/01/07 01:12:42;;;;;;;110.63;34.50;;;;;;;-145.18;100.00;60484.78;5063897;28;20093;-92
2023/01/07 01:15:11;;;;;;;108.77;34.23;;;;;;;-145.18;100.00;60484.78;5075528;28;20072;-91
2023/01/07 01:17:37;;;;;;;110.07;32.67;;;;;;;-145.18;100.00;60484.78;5083860;28;20024;-91
2023/01/07 01:20:05;;;;;;;107.27;32.60;;;;;;;-145.18;100.00;60484.78;5072158;28;20021;-90
2023/01/07 01:22:30;;;;;;;107.80;31.33;;;;;;;-145.18;100.00;60484.78;5063455;28;20045;-90
2023/01/07 01:24:55;;;;;;;104.60;32.43;;;;;;;-145.18;100.00;60484.78;5077741;28;20020;-91
2023/01/07 01:27:21;;;;;;;99.23;31.50;;;;;;;-145.18;100.00;60484.78;5065272;28;20013;-91
2023/01/07 01:29:46;;;;;;;100.53;31.30;;;;;;;-145.18;100.00;60484.78;5063723;28;20029;-90
2023/01/07 01:32:11;;;;;;;100.10;31.37;;;;;;;-145.18;100.00;60484.78;5063432;28;20085;-91
2023/01/07 01:34:37;;;;;;;99.63;32.50;;;;;;;-145.18;100.00;60484.78;5070091;28;20021;-91
2023/01/07 01:37:02;;;;;;;89.27;31.03;;;;;;;-145.18;100.00;60484.78;5050412;28;20037;-90
2023/01/07 01:39:28;;;;;;;88.90;30.37;;;;;;;-145.18;100.00;60484.78;5063365;28;20024;-90
2023/01/07 01:41:53;;;;;;;86.10;29.50;;;;;;;-145.18;100.00;60484.78;5062924;28;20017;-90
2023/01/07 01:44:37;;;;;;;85.47;30.70;;;;;;;-145.18;100.00;60484.78;5063582;28;20018;-91
2023/01/07 01:47:15;;;;;;;87.77;29.43;;;;;;;-145.18;100.00;60484.78;5072826;28;20076;-91
2023/01/07 01:49:51;;;;;;;82.80;29.13;;;;;;;-145.18;100.00;60484.78;5068138;28;20014;-91
2023/01/07 01:52:20;;;;;;;79.47;29.57;;;;;;;-145.18;100.00;60484.78;5062133;28;20013;-90
2023/01/07 01:54:54;;;;;;;77.77;29.10;;;;;;;-145.18;100.00;60484.78;5063427;28;20081;-90
2023/01/07 01:57:21;;;;;;;78.77;30.13;;;;;;;-145.18;100.00;60484.78;5062431;28;20052;-90
2023/01/07 01:59:49;;;;;;;67.30;28.33;;;;;;;-145.18;100.00;60484.78;5058972;28;20009;-90
2023/01/07 02:02:22;;;;;;;68.63;28.77;;;;;;;-145.18;100.00;60484.78;5040455;28;20085;-91
2023/01/07 02:04:47;;;;;;;67.23;29.43;;;;;;;-145.18;100.00;60484.78;5042099;22;20045;-69
2023/01/07 02:07:15;;;;;;;64.37;28.43;;;;;;;-145.18;100.00;60484.78;5032829;28;20400;-69
2023/01/07 02:09:41;;;;;;;65.10;27.23;;;;;;;-145.18;100.00;60484.78;5033812;28;20032;-68
2023/01/07 02:12:40;;;;;;;62.97;26.53;;;;;;;-145.18;100.00;60484.78;5033893;28;20029;-69
2023/01/07 02:15:15;;;;;;;62.23;25.97;;;;;;;-145.18;100.00;60484.78;5074945;22;20753;-69
2023/01/07 02:17:48;;;;;;;54.50;25.30;;;;;;;-145.18;100.00;60484.78;5054109;28;20084;-69
2023/01/07 02:20:40;;;;;;;52.90;26.10;;;;;;;-145.18;100.00;60484.78;5052153;28;20490;-69
2023/01/07 02:23:08;;;;;;;53.95;26.73;;;;;;;-145.18;100.00;60484.78;5012605;28;20132;-69
2023/01/07 02:25:52;;;;;;;50.40;25.70;;;;;;;-145.18;100.00;60484.78;5053629;28;20408;-70
2023/01/07 02:28:54;;;;;;;44.47;20.67;;;;;;;-145.18;100.00;60484.78;5052355;28;20423;-68
2023/01/07 02:31:43;;;;;;;44.83;23.05;;;;;;;-145.18;100.00;60484.78;5053479;28;20039;-70
2023/01/07 02:34:20;;;;;;;45.30;23.70;;;;;;;-145.18;100.00;60484.78;5046855;28;20036;-69
2023/01/07 02:37:11;;;;;;;45.30;24.53;;;;;;;-145.18;100.00;60484.78;5050688;28;20035;-69
2023/01/07 02:39:58;;;;;;;45.78;23.38;;;;;;;-145.18;100.00;60484.78;5053752;28;20028;-69
2023/01/07 02:42:39;;;;;;;43.67;24.73;;;;;;;-145.18;100.00;60484.78;5035300;28;20025;-69
2023/01/07 02:45:22;;;;;;;48.05;24.75;;;;;;;-145.18;100.00;60484.78;5053091;28;20036;-69
2023/01/07 02:47:53;;;;;;;44.37;24.00;;;;;;;-145.18;100.00;60484.78;5053112;28;20538;-68
2023/01/07 02:50:18;;;;;;;45.30;23.70;;;;;;;-145.18;100.00;60484.78;5050939;28;20029;-69
2023/01/07 02:52:44;;;;;;;45.27;23.87;;;;;;;-145.18;100.00;60484.78;5052300;28;20321;-68
2023/01/07 02:55:14;;;;;;;45.67;24.90;;;;;;;-145.18;100.00;60484.78;5053817;28;20043;-68
2023/01/07 02:57:54;;;;;;;41.60;21.10;;;;;;;-145.18;100.00;60484.78;5053315;28;20021;-69
2023/01/07 03:00:41;;;;;;;46.10;24.10;;;;;;;-145.18;100.00;60484.78;5052210;28;20028;-69
2023/01/07 03:03:38;;;;;;;56.23;26.83;;;;;;;-145.18;100.00;60484.78;5052521;28;20106;-69
2023/01/07 03:06:22;;;;;;;46.37;25.33;;;;;;;-145.18;100.00;60484.78;5035131;28;20559;-69
2023/01/07 03:09:02;;;;;;;49.70;25.33;;;;;;;-145.18;100.00;60484.78;5051765;28;20033;-70
2023/01/07 03:11:40;;;;;;;48.20;27.33;;;;;;;-145.18;100.00;60484.78;5052655;28;20098;-69
2023/01/07 03:14:31;;;;;;;50.37;26.13;;;;;;;-145.18;100.00;60484.78;5049460;28;20028;-69
2023/01/07 03:17:03;;;;;;;47.90;23.77;;;;;;;-145.18;100.00;60484.78;5051972;28;20036;-69
2023/01/07 03:19:35;;;;;;;44.47;23.93;;;;;;;-145.18;100.00;60484.78;5048805;28;20036;-69
2023/01/07 03:22:04;;;;;;;46.78;25.75;;;;;;;-145.18;100.00;60484.78;5050416;28;20039;-69
2023/01/07 03:24:31;;;;;;;46.10;25.67;;;;;;;-145.18;100.00;60484.78;5052478;28;20033;-69
2023/01/07 03:27:00;;;;;;;42.00;24.07;;;;;;;-145.18;100.00;60484.78;5052111;28;20087;-69
2023/01/07 03:29:26;;;;;;;45.80;25.57;;;;;;;-145.18;100.00;60484.78;5052979;28;20051;-70
2023/01/07 03:32:04;;;;;;;36.40;19.57;;;;;;;-145.18;100.00;60484.78;5053153;28;20028;-72
2023/01/07 03:34:32;;;;;;;40.23;23.17;;;;;;;-145.18;100.00;60484.78;5052272;28;20115;-72
2023/01/07 03:37:06;;;;;;;33.17;18.90;;;;;;;-145.18;100.00;60484.78;5052365;28;20488;-72
2023/01/07 03:39:34;;;;;;;39.83;23.13;;;;;;;-145.18;100.00;60484.78;5052168;28;20033;-71
2023/01/07 03:44:48;;;;;;;35.10;21.67;;;;;;;-145.18;100.00;60484.78;5052436;28;20055;-71
2023/01/07 03:47:14;;;;;;;37.97;22.90;;;;;;;-145.18;100.00;60484.78;5052755;28;20472;-71
2023/01/07 03:49:39;;;;;;;39.87;24.40;;;;;;;-145.18;100.00;60484.78;5052142;28;20033;-72
2023/01/07 03:52:05;;;;;;;32.30;19.43;;;;;;;-145.18;100.00;60484.78;5050715;28;20032;-71
2023/01/07 03:54:30;;;;;;;36.70;23.13;;;;;;;-145.18;100.00;60484.78;5052784;28;20081;-72
2023/01/07 03:56:55;;;;;;;35.27;21.53;;;;;;;-145.18;100.00;60484.78;5052086;28;20021;-72
2023/01/07 03:59:21;;;;;;;39.77;24.50;;;;;;;-145.18;100.00;60484.78;5034865;28;20532;-71
2023/01/07 04:01:46;;;;;;;38.30;24.03;;;;;;;-145.18;100.00;60484.78;5049060;28;20036;-72
2023/01/07 04:04:11;;;;;;;42.77;23.83;;;;;;;-145.18;100.00;60484.78;5051991;28;20100;-71
2023/01/07 04:06:37;;;;;;;36.57;23.73;;;;;;;-145.18;100.00;60484.78;5050482;28;20032;-71
2023/01/07 04:09:03;;;;;;;36.77;23.97;;;;;;;-145.18;100.00;60484.78;5052235;28;20033;-72
2023/01/07 04:11:28;;;;;;;38.93;24.67;;;;;;;-145.18;100.00;60484.78;5052481;28;20112;-72
2023/01/07 04:13:53;;;;;;;38.97;23.03;;;;;;;-145.18;100.00;60484.78;5052105;28;20037;-71
2023/01/07 04:16:19;;;;;;;37.77;24.40;;;;;;;-145.18;100.00;60484.78;5052306;28;20067;-72
2023/01/07 04:18:44;;;;;;;39.27;24.77;;;;;;;-145.18;100.00;60484.78;5051736;28;20031;-71
2023/01/07 04:21:10;;;;;;;36.17;19.93;;;;;;;-145.18;100.00;60484.78;5050010;28;20528;-72
2023/01/07 04:23:35;;;;;;;34.53;22.13;;;;;;;-145.18;100.00;60484.78;5051996;28;20025;-71
2023/01/07 04:26:00;;;;;;;34.30;20.93;;;;;;;-145.18;100.00;60484.78;5051250;28;20037;-72
2023/01/07 04:28:26;;;;;;;36.23;22.27;;;;;;;-145.18;100.00;60484.78;5051642;28;20108;-72
2023/01/07 04:30:51;;;;;;;32.23;21.83;;;;;;;-145.18;100.00;60484.78;5052076;28;20464;-72
2023/01/07 04:33:16;;;;;;;31.23;20.00;;;;;;;-145.18;100.00;60484.78;5051780;28;20028;-71
2023/01/07 04:35:45;;;;;;;29.13;18.87;;;;;;;-145.18;100.00;60484.78;5051176;28;20059;-72
2023/01/07 04:38:10;;;;;;;33.43;22.00;;;;;;;-145.18;100.00;60484.78;5051984;28;20040;-71
2023/01/07 04:40:35;;;;;;;30.77;20.30;;;;;;;-145.18;100.00;60484.78;5052080;28;20464;-71
2023/01/07 04:43:01;;;;;;;33.40;20.77;;;;;;;-145.18;100.00;60484.78;5045072;28;20025;-72
2023/01/07 04:45:26;;;;;;;27.90;17.97;;;;;;;-145.18;100.00;60484.78;5051518;28;20031;-71
2023/01/07 04:47:54;;;;;;;32.37;20.83;;;;;;;-145.18;100.00;60484.78;5051829;28;20025;-71
2023/01/07 04:50:20;;;;;;;29.50;19.60;;;;;;;-145.18;100.00;60484.78;5051308;28;20507;-71
2023/01/07 04:52:45;;;;;;;31.90;19.43;;;;;;;-145.18;100.00;60484.78;5051638;28;20111;-71
2023/01/07 04:55:11;;;;;;;28.90;19.60;;;;;;;-145.18;100.00;60484.78;5051224;28;20504;-71
2023/01/07 04:57:37;;;;;;;29.90;17.87;;;;;;;-145.18;100.00;60484.78;5051488;28;20110;-71
2023/01/07 05:00:03;;;;;;;26.03;16.83;;;;;;;-145.18;100.00;60484.78;5051766;28;20025;-72
2023/01/07 05:02:29;;;;;;;25.87;16.90;;;;;;;-145.18;100.00;60484.78;5051622;28;20037;-72
2023/01/07 05:04:54;;;;;;;25.20;15.77;;;;;;;-145.18;100.00;60484.78;5033187;28;20059;-72
2023/01/07 05:07:20;;;;;;;28.53;18.03;;;;;;;-145.18;100.00;60484.78;5042712;28;20094;-72
2023/01/07 05:09:45;;;;;;;25.83;16.60;;;;;;;-145.18;100.00;60484.78;5051945;28;20373;-72
2023/01/07 05:12:11;;;;;;;23.97;17.37;;;;;;;-145.18;100.00;60484.78;5050631;28;20020;-72
2023/01/07 05:14:36;;;;;;;29.00;16.70;;;;;;;-145.18;100.00;60484.78;5033414;28;20048;-72
2023/01/07 05:17:01;;;;;;;24.17;14.60;;;;;;;-145.18;100.00;60484.78;5050731;28;20025;-71
2023/01/07 05:19:27;;;;;;;24.37;16.20;;;;;;;-145.18;100.00;60484.78;5051300;28;20103;-72
2023/01/07 05:21:53;;;;;;;23.93;15.77;;;;;;;-145.18;100.00;60484.78;5050424;28;20025;-72
2023/01/07 05:24:18;;;;;;;23.93;15.17;;;;;;;-145.18;100.00;60484.78;5050603;28;20028;-71
2023/01/07 05:26:43;;;;;;;23.17;15.40;;;;;;;-145.18;100.00;60484.78;5051364;28;20104;-72
2023/01/07 05:29:09;;;;;;;24.23;14.77;;;;;;;-145.18;100.00;60484.78;5051209;28;20028;-72
2023/01/07 05:31:34;;;;;;;22.33;14.13;;;;;;;-145.18;100.00;60484.78;5051497;28;20043;-72
2023/01/07 05:33:59;;;;;;;21.63;14.17;;;;;;;-145.18;100.00;60484.78;5052079;28;20448;-71
2023/01/07 05:36:25;;;;;;;24.43;13.80;;;;;;;-145.18;100.00;60484.78;5054788;28;20021;-71
2023/01/07 05:38:50;;;;;;;24.10;14.17;;;;;;;-145.18;100.00;60484.78;5055371;28;20100;-71
2023/01/07 05:41:16;;;;;;;21.97;13.87;;;;;;;-145.18;100.00;60484.78;5055085;28;20399;-72
2023/01/07 05:43:41;;;;;;;21.03;13.43;;;;;;;-145.18;100.00;60484.78;5054932;28;20032;-71
2023/01/07 05:46:06;;;;;;;22.17;12.97;;;;;;;-145.18;100.00;60484.78;5054434;28;20033;-71
2023/01/07 05:48:32;;;;;;;22.53;13.73;;;;;;;-145.18;100.00;60484.78;5054416;28;20108;-71
2023/01/07 05:50:57;;;;;;;21.70;13.80;;;;;;;-145.18;100.00;60484.78;5050260;28;20028;-72
2023/01/07 05:53:23;;;;;;;20.50;12.87;;;;;;;-145.18;100.00;60484.78;5054785;28;20025;-71
2023/01/07 05:55:53;;;;;;;17.57;11.80;;;;;;;-145.18;100.00;60484.78;5054635;28;20025;-72
2023/01/07 05:58:19;;;;;;;20.50;11.70;;;;;;;-145.18;100.00;60484.78;5054743;28;20033;-71
2023/01/07 06:00:44;;;;;;;19.67;11.87;;;;;;;-145.18;100.00;60484.78;5053324;28;20063;-71
2023/01/07 06:03:09;;;;;;;15.60;9.20;;;;;;;-145.18;100.00;60484.78;5048970;28;20021;-72
2023/01/07 06:05:35;;;;;;;19.40;12.13;;;;;;;-145.18;100.00;60484.78;5051224;28;20025;-72
2023/01/07 06:08:00;;;;;;;20.03;11.93;;;;;;;-145.18;100.00;60484.78;5054766;28;20100;-72
2023/01/07 06:10:26;;;;;;;17.63;11.07;;;;;;;-145.18;100.00;60484.78;5054716;28;20385;-71
2023/01/07 06:12:51;;;;;;;18.53;11.00;;;;;;;-145.18;100.00;60484.78;5053594;28;20025;-72
2023/01/07 06:15:17;;;;;;;19.07;11.60;;;;;;;-145.18;100.00;60484.78;5054379;28;20033;-72
2023/01/07 06:17:43;;;;;;;17.23;10.83;;;;;;;-145.18;100.00;60484.78;5054095;28;20392;-72
2023/01/07 06:20:09;;;;;;;15.80;10.70;;;;;;;-145.18;100.00;60484.78;5053429;28;20033;-71
2023/01/07 06:22:35;;;;;;;19.17;10.40;;;;;;;-145.18;100.00;60484.78;5053509;28;20025;-71
2023/01/07 06:25:00;;;;;;;18.77;10.60;;;;;;;-145.18;100.00;60484.78;5054259;28;20036;-72
2023/01/07 06:27:26;;;;;;;15.17;9.57;;;;;;;-145.18;100.00;60484.78;5053654;28;20510;-72
2023/01/07 06:29:51;;;;;;;15.57;9.77;;;;;;;-145.18;100.00;60484.78;5054106;28;20028;-72
2023/01/07 06:32:17;;;;;;;15.43;9.80;;;;;;;-145.18;100.00;60484.78;5034833;28;20040;-72
2023/01/07 06:34:42;;;;;;;14.83;9.63;;;;;;;-145.18;100.00;60484.78;5053701;28;20025;-72
2023/01/07 06:37:07;;;;;;;17.60;10.23;;;;;;;-145.18;100.00;60484.78;5052609;28;20472;-71
2023/01/07 06:39:33;;;;;;;14.23;9.20;;;;;;;-145.18;100.00;60484.78;5053628;28;20082;-72
2023/01/07 06:41:58;;;;;;;15.57;9.30;;;;;;;-145.18;100.00;60484.78;5053724;28;20033;-72
2023/01/07 06:44:23;;;;;;;17.90;9.67;;;;;;;-145.18;100.00;60484.78;5053025;28;20021;-72
2023/01/07 06:46:49;;;;;;;15.03;9.47;;;;;;;-145.18;100.00;60484.78;5053971;28;20447;-72
2023/01/07 06:49:14;;;;;;;16.23;9.57;;;;;;;-145.18;100.00;60484.78;5053357;28;20020;-71
2023/01/07 06:51:40;;;;;;;16.33;9.40;;;;;;;-145.18;100.00;60484.78;5052141;28;20033;-72
2023/01/07 06:54:05;;;;;;;14.37;9.47;;;;;;;-145.18;100.00;60484.78;5053587;28;20025;-71
2023/01/07 06:56:30;;;;;;;13.43;7.97;;;;;;;-145.18;100.00;60484.78;5053958;28;20048;-72
2023/01/07 06:58:56;;;;;;;14.83;9.57;;;;;;;-145.18;100.00;60484.78;5053344;28;20380;-72
2023/01/07 07:01:21;;;;;;;16.00;9.50;;;;;;;-145.18;100.00;60484.78;5052210;28;20025;-72
2023/01/07 07:03:46;;;;;;;16.93;9.30;;;;;;;-145.18;100.00;60484.78;5052934;28;20013;-71
2023/01/07 07:06:12;;;;;;;17.53;9.73;;;;;;;-145.18;100.00;60484.78;5052427;28;20082;-72
2023/01/07 07:08:37;;;;;;;16.57;10.70;;;;;;;-145.18;100.00;60484.78;5052850;28;20361;-72
2023/01/07 07:11:03;;;;;;;17.17;10.13;;;;;;;-145.18;100.00;60484.78;5053202;28;20056;-72
2023/01/07 07:13:28;;;;;;;19.60;11.50;;;;;;;-145.18;100.00;60484.78;5048757;28;20025;-71
2023/01/07 07:15:53;;;;;;;22.93;11.53;;;;;;;-145.18;100.00;60484.78;5043580;28;20021;-72
2023/01/07 07:18:19;;;;;;;17.63;10.80;;;;;;;-145.18;100.00;60484.78;5052951;28;20025;-71
2023/01/07 07:20:45;;;;;;;18.67;11.27;;;;;;;-145.18;100.00;60484.78;5051376;28;20033;-72
2023/01/07 07:23:11;;;;;;;21.97;12.07;;;;;;;-145.18;100.00;60484.78;5050127;28;20083;-72
2023/01/07 07:25:36;;;;;;;23.57;12.03;;;;;;;-145.18;100.00;60484.78;5052718;28;20056;-72
2023/01/07 07:28:02;;;;;;;21.23;11.70;;;;;;;-145.18;100.00;60484.78;5053276;28;20035;-71
2023/01/07 07:30:27;;;;;;;21.40;11.77;;;;;;;-145.18;100.00;60484.78;5052104;28;20079;-71
2023/01/07 07:32:53;;;;;;;21.23;11.97;;;;;;;-145.18;100.00;60484.78;5053356;28;20074;-71
2023/01/07 07:35:18;;;;;;;20.90;12.17;;;;;;;-145.18;100.00;60484.78;5051793;28;20028;-71
2023/01/07 07:37:44;;;;;;;22.23;11.47;;;;;;;-145.18;100.00;60484.78;5052612;28;20025;-71
2023/01/07 07:40:09;;;;;;;21.37;11.53;;;;;;;-145.18;100.00;60484.78;5052969;28;20028;-72
2023/01/07 07:42:37;;;;;;;19.17;10.53;;;;;;;-145.18;100.00;60484.78;5051993;28;20084;-72
2023/01/07 07:45:07;;;;;;;20.10;10.40;;;;;;;-145.18;100.00;60484.78;5052952;28;20033;-71
2023/01/07 07:47:33;;;;;;;17.03;9.87;;;;;;;-145.18;100.00;60484.78;5052610;28;20032;-71
2023/01/07 07:49:58;;;;;;;16.57;9.60;;;;;;;-145.18;100.00;60484.78;5051979;28;20025;-71
2023/01/07 07:52:23;;;;;;;15.37;9.43;;;;;;;-145.18;100.00;60484.78;5051344;28;20069;-71
2023/01/07 07:54:49;;;;;;;17.40;9.90;;;;;;;-145.18;100.00;60484.78;5052825;28;20380;-71
2023/01/07 07:57:14;;;;;;;14.47;8.30;;;;;;;-145.18;100.00;60484.78;5051348;28;20020;-71
2023/01/07 07:59:39;;;;;;;13.63;7.90;;;;;;;-145.18;100.00;60484.78;5052059;28;20086;-71
2023/01/07 08:02:05;;;;;;;13.57;7.13;;;;;;;-145.18;100.00;60484.78;5039160;28;20029;-72
2023/01/07 08:04:33;;;;;;;11.47;7.20;;;;;;;-145.18;100.00;60484.78;5042092;28;20082;-71
2023/01/07 08:06:59;;;;;;;13.37;7.30;;;;;;;-145.18;100.00;60484.78;5050200;28;20029;-71
2023/01/07 08:09:25;;;;;;;10.30;6.70;;;;;;;-145.18;100.00;60484.78;5051819;28;20024;-72
2023/01/07 08:11:50;;;;;;;9.47;6.10;;;;;;;-145.18;100.00;60484.78;5052158;28;20032;-72
2023/01/07 08:14:15;;;;;;;11.53;6.20;;;;;;;-145.18;100.00;60484.78;5051709;28;20029;-71
2023/01/07 08:16:41;;;;;;;9.40;5.27;;;;;;;-145.18;100.00;60484.78;5052303;28;20108;-71
2023/01/07 08:19:06;;;;;;;9.43;5.17;;;;;;;-145.18;100.00;60484.78;5051556;28;20029;-72
2023/01/07 08:21:31;;;;;;;7.63;5.00;;;;;;;-145.18;100.00;60484.78;5049339;28;20159;-71
2023/01/07 08:23:57;;;;;;;8.13;4.57;;;;;;;-145.18;100.00;60484.78;5051512;28;20082;-71
2023/01/07 08:26:23;;;;;;;6.83;4.30;;;;;;;-145.18;100.00;60484.78;5052322;28;20048;-71
2023/01/07 08:28:48;;;;;;;7.87;3.80;;;;;;;-145.18;100.00;60484.78;5052106;28;20464;-71
2023/01/07 08:31:13;;;;;;;7.53;3.67;;;;;;;-145.18;100.00;60484.78;5050226;28;20028;-71
2023/01/07 08:33:39;;;;;;;11.27;4.00;;;;;;;-145.18;100.00;60484.78;5051778;28;20021;-71
2023/01/07 08:36:06;;;;;;;4.80;3.20;;;;;;;-145.18;100.00;60484.78;5052108;28;20056;-72
2023/01/07 08:38:32;;;;;;;5.73;3.57;;;;;;;-145.18;100.00;60484.78;5053924;28;20116;-71
2023/01/07 08:40:58;;;;;;;5.57;3.40;;;;;;;-145.18;100.00;60484.78;5048964;28;20477;-72
2023/01/07 08:43:24;;;;;;;5.77;3.60;;;;;;;-145.18;100.00;60484.78;5046476;28;20020;-71
2023/01/07 08:45:51;;;;;;;5.83;3.37;;;;;;;-145.18;100.00;60484.78;5050494;28;20465;-72
2023/01/07 08:48:17;;;;;;;5.60;3.10;;;;;;;-145.18;100.00;60484.78;5060019;28;20408;-72
2023/01/07 08:50:42;;;;;;;6.90;3.00;;;;;;;-145.18;100.00;60484.78;5063126;28;20036;-72
2023/01/07 08:53:08;;;;;;;5.40;3.00;;;;;;;-145.18;100.00;60484.78;5050112;28;20024;-71
2023/01/07 08:55:33;;;;;;;6.33;3.53;;;;;;;-145.18;100.00;60484.78;5054179;28;20113;-71
2023/01/07 08:57:59;;;;;;;5.70;3.13;;;;;;;-145.18;100.00;60484.78;5060549;28;20380;-72
2023/01/07 09:00:24;;;;;;;6.00;3.10;;;;;;;-145.18;100.00;60484.78;5071719;28;20044;-71
2023/01/07 09:02:50;;;;;;;5.70;3.00;;;;;;;-145.18;100.00;60484.78;5059615;28;20473;-72
2023/01/07 09:05:16;;;;;;;6.27;3.03;;;;;;;-145.18;100.00;60484.78;5051354;28;20085;-71
2023/01/07 09:07:41;;;;;;;4.93;3.30;;;;;;;-145.18;100.00;60484.78;5043774;28;20381;-71
2023/01/07 09:10:08;;;;;;;5.50;3.10;;;;;;;-145.18;100.00;60484.78;5075911;28;20040;-72
2023/01/07 09:12:34;;;;;;;6.43;3.40;;;;;;;-145.18;100.00;60484.78;5062198;28;20032;-72
2023/01/07 09:14:59;;;;;;;6.33;3.10;;;;;;;-145.18;100.00;60484.78;5059837;28;20392;-72
2023/01/07 09:17:25;;;;;;;4.77;2.80;;;;;;;-145.18;100.00;60484.78;5064232;28;20020;-72
2023/01/07 09:19:50;;;;;;;6.67;3.30;;;;;;;-145.18;100.00;60484.78;5064292;28;20024;-72
2023/01/07 09:22:15;;;;;;;6.20;3.20;;;;;;;-145.18;100.00;60484.78;5052989;28;20025;-71
2023/01/07 09:24:41;;;;;;;5.10;3.00;;;;;;;-145.18;100.00;60484.78;5061467;28;20104;-71
2023/01/07 09:27:06;;;;;;;5.27;2.80;;;;;;;-145.18;100.00;60484.78;5070537;28;20400;-72
2023/01/07 09:29:31;;;;;;;5.43;3.30;;;;;;;-145.18;100.00;60484.78;5075162;28;20120;-72
2023/01/07 09:31:57;;;;;;;5.57;3.07;;;;;;;-145.18;100.00;60484.78;5075126;28;20036;-72
2023/01/07 09:34:22;;;;;;;11.67;3.97;;;;;;;-145.18;100.00;60484.78;5054444;28;20032;-71
2023/01/07 09:36:48;;;;;;;5.50;3.00;;;;;;;-145.18;100.00;60484.78;5059651;28;20031;-71
2023/01/07 09:39:13;;;;;;;5.87;2.80;;;;;;;-145.18;100.00;60484.78;5055050;28;20112;-72
2023/01/07 09:42:05;;;;;;;8.33;2.80;;;;;;;-145.18;100.00;60484.78;5074932;28;20150;-72
2023/01/07 09:44:48;;;;;;;5.83;2.67;;;;;;;-145.18;100.00;60484.78;5065468;28;20029;-72
2023/01/07 09:47:17;;;;;;;4.10;2.50;;;;;;;-145.18;100.00;60484.78;5074819;28;20070;-71
2023/01/07 09:49:46;;;;;;;4.47;2.53;;;;;;;-145.18;100.00;60484.78;5050219;28;20585;-71
2023/01/07 09:52:20;;;;;;;4.40;2.60;;;;;;;-145.18;100.00;60484.78;5066122;28;20111;-71
2023/01/07 09:54:47;;;;;;;9.30;2.63;;;;;;;-145.18;100.00;60484.78;5054132;28;20038;-71
2023/01/07 09:57:16;;;;;;;4.40;2.70;;;;;;;-145.18;100.00;60484.78;5054896;28;20089;-72
2023/01/07 09:59:42;;;;;;;5.47;2.60;;;;;;;-145.18;100.00;60484.78;5051706;28;20378;-72
2023/01/07 10:02:26;;;;;;;4.40;2.47;;;;;;;-145.18;100.00;60484.78;5047561;28;20028;-71
2023/01/07 10:04:51;;;;;;;5.53;2.43;;;;;;;-145.18;100.00;60484.78;5051067;28;20086;-71
2023/01/07 10:07:19;;;;;;;4.77;2.30;;;;;;;-145.18;100.00;60484.78;5054407;28;20041;-72
2023/01/07 10:10:15;;;;;;;3.53;2.37;;;;;;;-145.18;100.00;60484.78;5054139;28;20064;-72
2023/01/07 10:12:45;;;;;;;4.60;2.53;;;;;;;-145.18;100.00;60484.78;5049644;28;20024;-71
2023/01/07 10:15:14;;;;;;;4.37;2.17;;;;;;;-145.18;100.00;60484.78;5070427;28;20036;-72
2023/01/07 10:17:40;;;;;;;5.60;2.37;;;;;;;-145.18;100.00;60484.78;5074225;28;20052;-72
2023/01/07 10:20:24;;;;;;;4.70;2.53;;;;;;;-145.18;100.00;60484.78;5058311;28;20064;-72
2023/01/07 10:23:02;;;;;;;4.70;2.40;;;;;;;-145.18;100.00;60484.78;5042630;28;20032;-72
2023/01/07 10:25:49;;;;;;;4.17;2.60;;;;;;;-145.18;100.00;60484.78;5052785;28;20102;-71
2023/01/07 10:28:31;;;;;;;3.97;2.20;;;;;;;-145.18;100.00;60484.78;5053968;28;20033;-72
2023/01/07 10:30:59;;;;;;;5.57;2.50;;;;;;;-145.18;100.00;60484.78;5054163;28;20064;-71
2023/01/07 10:33:30;;;;;;;5.83;2.60;;;;;;;-145.18;100.00;60484.78;5053143;28;20045;-71
2023/01/07 10:36:17;;;;;;;6.68;2.55;;;;;;;-145.18;100.00;60484.78;5053700;28;20036;-72
2023/01/07 10:38:48;;;;;;;7.83;2.80;;;;;;;-145.18;100.00;60484.78;5051233;28;20037;-71
2023/01/07 10:41:26;;;;;;;4.32;2.42;;;;;;;-145.18;100.00;60484.78;5053573;28;20426;-71
2023/01/07 10:44:18;;;;;;;4.43;2.30;;;;;;;-145.18;100.00;60484.78;5051696;28;20043;-72
2023/01/07 10:47:01;;;;;;;5.33;2.17;;;;;;;-145.18;100.00;60484.78;5049307;28;20037;-71
2023/01/07 10:49:43;;;;;;;3.90;2.03;;;;;;;-145.18;100.00;60484.78;5052412;28;20029;-71
2023/01/07 10:52:39;;;;;;;4.75;2.50;;;;;;;-145.18;100.00;60484.78;5053623;28;20079;-71
2023/01/07 10:55:46;;;;;;;3.90;2.10;;;;;;;-145.18;100.00;60484.78;5051037;28;20107;-72
2023/01/07 10:58:12;;;;;;;5.90;2.10;;;;;;;-145.18;100.00;60484.78;5052966;28;20747;-72
2023/01/07 11:00:38;;;;;;;5.40;2.03;;;;;;;-145.18;100.00;60484.78;5052992;28;20025;-71
2023/01/07 11:03:04;;;;;;;3.90;2.00;;;;;;;-145.18;100.00;60484.78;5034288;28;20111;-71
2023/01/07 11:05:37;;;;;;;5.33;2.17;;;;;;;-145.18;100.00;60484.78;5052962;28;20116;-72
2023/01/07 11:08:06;;;;;;;3.33;1.77;;;;;;;-145.18;100.00;60484.78;5052026;28;20085;-72